createdAt,value
2022-09-12T04:00:19.553Z,71.50
2022-09-12T04:03:22.201Z,71.50
2022-09-12T04:06:24.221Z,72.31
2022-09-12T04:09:26.505Z,73.06
2022-09-12T04:12:29.625Z,71.69
2022-09-12T04:15:32.315Z,71.59
2022-09-12T04:18:35.514Z,71.36
2022-09-12T04:21:39.402Z,70.06
2022-09-12T04:24:41.422Z,69.54
2022-09-12T04:27:43.710Z,69.26
2022-09-12T04:30:45.764Z,69.08
2022-09-12T04:34:59.862Z,66.74
2022-09-12T04:38:02.275Z,66.74
2022-09-12T04:41:15.878Z,67.29
2022-09-12T04:44:18.542Z,67.37
2022-09-12T04:47:20.650Z,67.51
2022-09-12T04:50:22.937Z,67.85
2022-09-12T04:53:24.958Z,68.42
2022-09-12T04:56:28.762Z,68.52
2022-09-12T04:59:30.797Z,68.88
2022-09-12T05:02:34.863Z,69.75
2022-09-12T05:05:37.121Z,68.68
2022-09-12T05:08:39.421Z,69.07
2022-09-12T05:15:07.080Z,69.54
2022-09-12T05:18:09.149Z,68.80
2022-09-12T05:21:14.414Z,67.92
2022-09-12T05:24:16.570Z,67.81
2022-09-12T05:27:20.026Z,68.08
2022-09-12T05:30:22.203Z,67.47
2022-09-12T05:33:25.178Z,67.24
2022-09-12T05:36:29.371Z,66.25
2022-09-12T05:39:31.734Z,65.77
2022-09-12T05:42:33.853Z,65.15
2022-09-12T05:45:36.138Z,64.88
2022-09-12T05:48:40.327Z,64.32
2022-09-12T05:51:45.194Z,64.25
2022-09-12T05:54:48.513Z,64.09
2022-09-12T05:57:51.318Z,64.64
2022-09-12T06:00:53.343Z,64.56
2022-09-12T06:04:00.697Z,64.66
2022-09-12T06:07:02.779Z,63.36
2022-09-12T06:10:05.430Z,64.36
2022-09-12T06:13:08.622Z,63.46
2022-09-12T06:16:13.077Z,63.90
2022-09-12T06:19:18.152Z,63.53
2022-09-12T06:22:21.030Z,64.07
2022-09-12T06:25:23.121Z,64.42
2022-09-12T06:28:26.177Z,63.26
2022-09-12T06:31:31.170Z,63.77
2022-09-12T06:34:34.012Z,65.61
2022-09-12T06:37:36.121Z,63.28
2022-09-12T06:40:46.332Z,62.41
2022-09-12T06:43:48.595Z,62.37
2022-09-12T06:46:50.925Z,61.69
2022-09-12T06:49:52.940Z,61.63
2022-09-12T06:52:55.803Z,61.68
2022-09-12T06:56:03.020Z,61.02
2022-09-12T06:59:05.439Z,59.06
2022-09-12T07:02:09.082Z,60.73
2022-09-12T07:05:11.996Z,59.98
2022-09-12T07:08:15.529Z,59.20
2022-09-12T07:11:20.700Z,58.22
2022-09-12T07:14:24.130Z,58.37
2022-09-12T07:17:27.527Z,57.57
2022-09-12T07:20:33.140Z,58.51
2022-09-12T07:23:36.450Z,57.35
2022-09-12T07:26:40.566Z,57.04
2022-09-12T07:29:44.235Z,57.57
2022-09-12T07:32:46.266Z,56.59
2022-09-12T07:35:48.647Z,56.25
2022-09-12T07:38:57.606Z,56.95
2022-09-12T07:42:00.408Z,56.78
2022-09-12T07:45:02.862Z,57.68
2022-09-12T07:48:05.144Z,57.56
2022-09-12T07:51:10.774Z,57.81
2022-09-12T07:54:13.121Z,57.52
2022-09-12T07:57:15.695Z,56.90
2022-09-12T08:00:18.774Z,56.92
2022-09-12T08:03:21.076Z,56.28
2022-09-12T08:06:24.367Z,57.17
2022-09-12T08:09:26.682Z,55.17
2022-09-12T08:12:29.212Z,55.35
2022-09-12T08:15:31.571Z,55.41
2022-09-12T08:18:35.474Z,54.87
2022-09-12T08:21:37.782Z,53.35
2022-09-12T08:24:40.147Z,54.34
2022-09-12T08:27:43.037Z,54.25
2022-09-12T08:30:45.102Z,54.38
2022-09-12T08:33:47.596Z,54.10
2022-09-12T08:36:49.711Z,53.70
2022-09-12T08:39:52.944Z,53.78
2022-09-12T08:43:19.337Z,53.80
2022-09-12T08:47:26.732Z,53.97
2022-09-12T08:50:29.374Z,53.75
2022-09-12T08:53:35.965Z,53.02
2022-09-12T08:56:39.153Z,52.17
2022-09-12T08:59:44.772Z,53.11
2022-09-12T09:02:58.067Z,51.93
2022-09-12T09:06:14.090Z,54.03
2022-09-12T09:09:15.967Z,53.76
2022-09-12T09:13:00.765Z,53.53
2022-09-12T09:16:11.891Z,53.93
2022-09-12T09:19:26.910Z,52.54
2022-09-12T09:22:38.384Z,51.60
2022-09-12T09:25:58.754Z,52.02
2022-09-12T09:29:14.540Z,51.59
2022-09-12T09:32:26.818Z,50.97
2022-09-12T09:35:45.680Z,51.31
2022-09-12T09:38:55.602Z,50.63
2022-09-12T09:42:19.278Z,50.65
2022-09-12T09:45:24.359Z,52.01
2022-09-12T09:48:38.565Z,51.30
2022-09-12T09:51:42.586Z,51.45
2022-09-12T09:54:50.181Z,51.44
2022-09-12T09:57:53.256Z,50.55
2022-09-12T10:01:02.776Z,50.98
2022-09-12T10:04:05.369Z,51.86
2022-09-12T10:07:18.705Z,52.52
2022-09-12T10:10:25.528Z,52.86
2022-09-12T10:13:51.550Z,53.54
2022-09-12T10:16:53.899Z,50.87
2022-09-12T10:20:17.315Z,49.98
2022-09-12T10:23:19.232Z,49.76
2022-09-12T10:26:21.808Z,50.51
2022-09-12T10:29:32.084Z,51.43
2022-09-12T10:32:39.846Z,52.29
2022-09-12T10:35:46.002Z,53.91
2022-09-12T10:38:51.033Z,52.75
2022-09-12T10:41:53.517Z,53.67
2022-09-12T10:44:57.033Z,53.13
2022-09-12T10:48:05.522Z,53.51
2022-09-12T10:51:28.011Z,53.84
2022-09-12T10:54:30.751Z,54.02
2022-09-12T10:58:01.713Z,53.65
2022-09-12T11:01:13.450Z,51.79
2022-09-12T11:04:24.769Z,52.18
2022-09-12T11:07:46.074Z,51.36
2022-09-12T11:10:59.642Z,50.99
2022-09-12T11:14:46.408Z,52.17
2022-09-12T11:17:48.349Z,50.05
2022-09-12T11:21:10.558Z,49.14
2022-09-12T11:24:23.258Z,48.95
2022-09-12T11:27:31.672Z,50.32
2022-09-12T11:30:46.900Z,50.19
2022-09-12T11:33:54.949Z,51.57
2022-09-12T11:37:22.159Z,51.01
2022-09-12T11:40:55.950Z,51.51
2022-09-12T11:44:21.182Z,52.28
2022-09-12T11:47:24.253Z,52.00
2022-09-12T11:50:30.905Z,52.47
2022-09-12T11:53:38.853Z,53.54
2022-09-12T11:56:46.250Z,53.55
2022-09-12T11:59:58.125Z,54.67
2022-09-12T12:03:08.670Z,54.40
2022-09-12T12:06:19.381Z,54.01
2022-09-12T12:09:21.581Z,54.80
2022-09-12T12:12:27.568Z,53.31
2022-09-12T12:15:30.830Z,52.56
2022-09-12T12:18:36.563Z,52.69
2022-09-12T12:21:47.256Z,53.18
2022-09-12T12:25:28.883Z,54.30
2022-09-12T12:28:50.704Z,52.53
2022-09-12T12:32:02.051Z,53.20
2022-09-12T12:35:40.441Z,52.49
2022-09-12T12:38:42.982Z,53.06
2022-09-12T12:41:45.629Z,51.86
2022-09-12T12:44:51.381Z,49.67
2022-09-12T12:47:59.159Z,51.54
2022-09-12T12:51:29.452Z,48.16
2022-09-12T12:54:40.510Z,48.58
2022-09-12T12:57:51.001Z,47.61
2022-09-12T13:01:13.508Z,47.86
2022-09-12T13:04:19.671Z,48.16
2022-09-12T13:07:25.974Z,48.82
2022-09-12T13:10:30.575Z,49.83
2022-09-12T13:13:58.037Z,48.43
2022-09-12T13:17:04.614Z,48.96
2022-09-12T13:20:27.232Z,48.37
2022-09-12T13:23:32.636Z,48.72
2022-09-12T13:26:41.889Z,49.33
2022-09-12T13:29:44.209Z,49.99
2022-09-12T13:32:46.264Z,47.91
2022-09-12T13:36:13.668Z,48.48
2022-09-12T13:39:27.646Z,48.87
2022-09-12T13:42:39.505Z,50.65
2022-09-12T13:45:43.649Z,49.05
2022-09-12T13:48:46.686Z,48.56
2022-09-12T13:52:01.776Z,46.55
2022-09-12T13:55:22.841Z,47.27
2022-09-12T13:58:35.018Z,46.81
2022-09-12T14:01:40.463Z,48.09
2022-09-12T14:05:06.533Z,47.55
2022-09-12T14:08:11.238Z,46.55
2022-09-12T14:11:30.861Z,47.44
2022-09-12T14:14:36.510Z,47.33
2022-09-12T14:17:39.573Z,47.09
2022-09-12T14:20:42.695Z,46.53
2022-09-12T14:23:47.765Z,46.36
2022-09-12T14:26:54.367Z,47.46
2022-09-12T14:30:09.089Z,47.36
2022-09-12T14:33:11.027Z,47.26
2022-09-12T14:36:34.806Z,47.14
2022-09-12T14:39:42.849Z,43.60
2022-09-12T14:42:46.729Z,43.55
2022-09-12T14:45:59.430Z,43.91
2022-09-12T14:49:20.864Z,43.89
2022-09-12T14:52:33.113Z,43.72
2022-09-12T14:55:44.551Z,42.69
2022-09-12T14:58:46.778Z,42.90
2022-09-12T15:01:49.166Z,42.20
2022-09-12T15:05:16.187Z,41.85
2022-09-12T15:08:18.488Z,41.95
2022-09-12T15:11:23.260Z,42.92
2022-09-12T15:14:25.543Z,42.37
2022-09-12T15:17:27.561Z,43.58
2022-09-12T15:20:29.966Z,42.45
2022-09-12T15:23:42.770Z,42.61
2022-09-12T15:26:45.158Z,42.62
2022-09-12T15:29:47.184Z,43.15
2022-09-12T15:32:49.501Z,44.02
2022-09-12T15:35:52.542Z,41.85
2022-09-12T15:38:55.482Z,42.12
2022-09-12T15:41:57.516Z,40.92
2022-09-12T15:45:02.566Z,40.21
2022-09-12T15:48:04.893Z,41.07
2022-09-12T15:51:18.979Z,41.61
2022-09-12T15:54:21.412Z,41.42
2022-09-12T15:57:23.689Z,42.41
2022-09-12T16:00:26.011Z,42.36
2022-09-12T16:03:29.398Z,42.65
2022-09-12T16:06:37.201Z,42.85
